createdAt,value
2019-05-18T00:00:46.221Z,38.70
2019-05-18T00:03:14.822Z,39.53
2019-05-18T00:05:43.541Z,39.00
2019-05-18T00:08:12.144Z,39.90
2019-05-18T00:10:41.007Z,41.10
2019-05-18T00:13:09.698Z,41.70
2019-05-18T00:15:38.447Z,38.05
2019-05-18T00:18:07.065Z,41.13
2019-05-18T00:20:35.921Z,38.70
2019-05-18T00:23:04.491Z,39.40
2019-05-18T00:25:33.023Z,38.78
2019-05-18T00:28:01.623Z,35.43
2019-05-18T00:30:31.977Z,38.83
2019-05-18T00:33:00.523Z,39.83
2019-05-18T00:35:29.382Z,38.10
2019-05-18T00:37:57.920Z,41.92
2019-05-18T00:40:26.435Z,40.33
2019-05-18T00:42:55.001Z,38.35
2019-05-18T00:45:23.464Z,39.48
2019-05-18T00:47:52.005Z,39.63
2019-05-18T00:50:21.150Z,39.70
2019-05-18T00:52:49.787Z,37.98
2019-05-18T00:55:18.407Z,45.45
2019-05-18T00:57:46.949Z,41.65
2019-05-18T01:00:16.411Z,40.55
2019-05-18T01:02:44.952Z,39.10
2019-05-18T01:05:14.056Z,39.23
2019-05-18T01:07:42.529Z,43.58
2019-05-18T01:10:11.712Z,40.30
2019-05-18T01:12:40.544Z,42.98
2019-05-18T01:15:11.024Z,40.65
2019-05-18T01:17:39.565Z,40.60
2019-05-18T01:20:09.075Z,39.92
2019-05-18T01:22:37.712Z,40.40
2019-05-18T01:25:06.906Z,40.23
2019-05-18T01:27:35.524Z,38.85
2019-05-18T01:30:06.240Z,39.27
2019-05-18T01:32:34.863Z,41.25
2019-05-18T01:35:05.743Z,39.13
2019-05-18T01:37:34.325Z,41.42
2019-05-18T01:40:04.167Z,38.38
2019-05-18T01:42:32.677Z,39.60
2019-05-18T01:45:15.403Z,42.78
2019-05-18T01:47:31.501Z,42.27
2019-05-18T01:50:00.060Z,42.45
2019-05-18T01:52:29.814Z,41.58
2019-05-18T01:54:58.384Z,41.02
2019-05-18T01:57:27.080Z,41.08
2019-05-18T01:59:55.548Z,40.23
2019-05-18T02:02:24.201Z,38.88
2019-05-18T02:04:52.967Z,38.98
2019-05-18T02:07:21.458Z,39.92
2019-05-18T02:09:50.270Z,37.35
2019-05-18T02:12:18.898Z,38.42
2019-05-18T02:14:47.482Z,38.73
2019-05-18T02:17:15.992Z,40.33
2019-05-18T02:19:44.922Z,41.10
2019-05-18T02:22:14.906Z,39.63
2019-05-18T02:24:43.714Z,39.25
2019-05-18T02:27:12.461Z,40.55
2019-05-18T02:29:41.078Z,38.40
2019-05-18T02:32:09.671Z,39.13
2019-05-18T02:34:38.798Z,39.35
2019-05-18T02:37:07.423Z,40.63
2019-05-18T02:39:36.090Z,39.45
2019-05-18T02:42:04.964Z,39.23
2019-05-18T02:44:33.687Z,39.98
2019-05-18T02:47:02.290Z,38.83
2019-05-18T02:49:31.043Z,39.90
2019-05-18T02:52:00.025Z,39.10
2019-05-18T02:54:28.646Z,39.95
2019-05-18T02:56:57.359Z,40.67
2019-05-18T02:59:25.906Z,39.13
2019-05-18T03:01:54.751Z,40.58
2019-05-18T03:04:23.391Z,37.40
2019-05-18T03:06:51.896Z,36.58
2019-05-18T03:09:20.798Z,38.08
2019-05-18T03:11:49.719Z,38.67
2019-05-18T03:14:18.214Z,36.50
2019-05-18T03:16:46.806Z,36.88
2019-05-18T03:19:15.665Z,39.53
2019-05-18T03:21:45.525Z,38.02
2019-05-18T03:24:14.067Z,38.20
2019-05-18T03:26:42.840Z,37.55
2019-05-18T03:29:11.453Z,37.85
2019-05-18T03:31:43.208Z,37.90
2019-05-18T03:34:12.054Z,35.90
2019-05-18T03:36:40.605Z,36.65
2019-05-18T03:39:09.529Z,35.78
2019-05-18T03:41:38.317Z,36.20
2019-05-18T03:44:06.842Z,36.73
2019-05-18T03:46:35.545Z,36.03
2019-05-18T03:49:04.376Z,36.65
2019-05-18T03:51:33.340Z,36.80
2019-05-18T03:54:01.954Z,36.33
2019-05-18T03:56:30.658Z,36.05
2019-05-18T03:59:01.915Z,38.00
2019-05-18T04:01:30.589Z,38.02
2019-05-18T04:03:59.425Z,36.08
2019-05-18T04:06:27.953Z,36.95
2019-05-18T04:08:56.514Z,36.85
2019-05-18T04:11:25.605Z,36.50
2019-05-18T04:13:54.109Z,38.48
2019-05-18T04:16:22.689Z,38.40
2019-05-18T04:18:51.417Z,39.08
2019-05-18T04:21:21.314Z,37.15
2019-05-18T04:23:49.804Z,37.63
2019-05-18T04:26:18.287Z,39.40
2019-05-18T04:28:46.789Z,37.90
2019-05-18T04:31:15.631Z,38.05
2019-05-18T04:33:44.339Z,41.50
2019-05-18T04:36:12.879Z,41.90
2019-05-18T04:38:41.491Z,42.67
2019-05-18T04:41:10.639Z,42.53
2019-05-18T04:43:42.509Z,42.17
2019-05-18T04:48:39.143Z,40.45
2019-05-18T04:51:07.957Z,39.53
2019-05-18T04:53:36.737Z,39.73
2019-05-18T04:56:05.396Z,40.05
2019-05-18T04:58:33.946Z,38.23
2019-05-18T05:01:02.740Z,37.90
2019-05-18T05:03:31.437Z,39.78
2019-05-18T05:05:59.963Z,39.18
2019-05-18T05:08:28.632Z,40.98
2019-05-18T05:10:57.840Z,40.05
2019-05-18T05:13:26.450Z,39.65
2019-05-18T05:15:54.982Z,40.48
2019-05-18T05:18:23.704Z,40.28
2019-05-18T05:20:52.214Z,41.48
2019-05-18T05:23:20.695Z,43.55
2019-05-18T05:25:49.670Z,44.65
2019-05-18T05:28:18.212Z,43.40
2019-05-18T05:30:46.995Z,44.95
2019-05-18T05:33:15.644Z,45.03
2019-05-18T05:35:44.185Z,43.98
2019-05-18T05:38:12.721Z,49.67
2019-05-18T05:40:41.261Z,49.77
2019-05-18T05:43:09.889Z,47.88
2019-05-18T05:45:38.370Z,48.00
2019-05-18T05:48:07.089Z,47.88
2019-05-18T05:50:36.704Z,50.28
2019-05-18T05:53:05.651Z,52.62
2019-05-18T05:55:34.372Z,50.78
2019-05-18T05:58:02.910Z,51.75
2019-05-18T06:00:31.590Z,51.70
2019-05-18T06:03:00.313Z,51.13
2019-05-18T06:05:28.855Z,52.78
2019-05-18T06:07:57.329Z,53.40
2019-05-18T06:10:26.065Z,53.30
2019-05-18T06:12:54.609Z,54.15
2019-05-18T06:15:23.142Z,52.43
2019-05-18T06:17:51.730Z,52.25
2019-05-18T06:20:20.282Z,51.77
2019-05-18T06:22:48.849Z,52.55
2019-05-18T06:25:17.657Z,50.67
2019-05-18T06:27:46.259Z,53.05
2019-05-18T06:30:15.220Z,57.85
2019-05-18T06:32:43.898Z,54.33
2019-05-18T06:35:12.685Z,53.20
2019-05-18T06:37:41.281Z,52.88
2019-05-18T06:40:10.692Z,53.08
2019-05-18T06:42:39.229Z,54.05
2019-05-18T06:45:08.204Z,55.28
2019-05-18T06:47:36.845Z,56.20
2019-05-18T06:50:11.207Z,55.33
2019-05-18T06:52:38.149Z,56.15
2019-05-18T06:55:06.932Z,57.33
2019-05-18T06:57:36.597Z,58.48
2019-05-18T07:00:10.179Z,59.20
2019-05-18T07:02:38.803Z,56.50
2019-05-18T07:05:08.041Z,59.73
2019-05-18T07:07:36.611Z,55.80
2019-05-18T07:10:07.249Z,57.05
2019-05-18T07:12:35.866Z,55.88
2019-05-18T07:15:07.178Z,56.37
2019-05-18T07:17:35.972Z,54.33
2019-05-18T07:20:05.560Z,54.83
2019-05-18T07:22:34.180Z,53.73
2019-05-18T07:25:02.924Z,53.85
2019-05-18T07:27:31.399Z,53.05
2019-05-18T07:30:00.048Z,52.85
2019-05-18T07:32:28.967Z,53.78
2019-05-18T07:34:57.575Z,53.38
2019-05-18T07:37:26.126Z,54.42
2019-05-18T07:39:55.132Z,52.73
2019-05-18T07:42:24.958Z,51.37
2019-05-18T07:44:53.427Z,52.98
2019-05-18T07:47:21.917Z,52.17
2019-05-18T07:49:50.391Z,49.67
2019-05-18T07:52:19.329Z,48.20
2019-05-18T07:54:47.874Z,49.98
2019-05-18T07:57:16.373Z,49.15
2019-05-18T07:59:44.873Z,47.08
2019-05-18T08:02:13.983Z,48.78
2019-05-18T08:04:42.461Z,45.28
2019-05-18T08:07:11.055Z,46.63
2019-05-18T08:09:39.841Z,46.77
2019-05-18T08:12:08.392Z,44.90
2019-05-18T08:14:37.023Z,45.70
2019-05-18T08:17:05.689Z,41.85
2019-05-18T08:19:34.360Z,42.20
2019-05-18T08:22:03.245Z,45.25
2019-05-18T08:24:32.493Z,39.23
2019-05-18T08:27:02.278Z,40.60
2019-05-18T08:29:31.153Z,39.98
2019-05-18T08:32:00.126Z,37.17
2019-05-18T08:34:28.741Z,31.52
2019-05-18T08:36:57.301Z,40.63
2019-05-18T08:39:26.195Z,32.35
2019-05-18T08:41:55.129Z,36.15
2019-05-18T08:44:23.811Z,36.10
2019-05-18T08:46:52.661Z,40.75
2019-05-18T08:49:21.183Z,34.70
2019-05-18T08:51:49.856Z,42.20
2019-05-18T08:54:18.682Z,41.08
2019-05-18T08:56:47.314Z,39.03
2019-05-18T08:59:15.795Z,39.83
2019-05-18T09:01:44.728Z,37.78
2019-05-18T09:04:13.280Z,35.78
2019-05-18T09:06:41.878Z,36.08
2019-05-18T09:09:10.850Z,38.00
2019-05-18T09:11:39.758Z,38.15
2019-05-18T09:14:08.323Z,36.42
2019-05-18T09:16:36.929Z,35.58
2019-05-18T09:19:05.602Z,35.13
2019-05-18T09:21:35.256Z,35.05
2019-05-18T09:24:04.025Z,37.03
2019-05-18T09:26:32.573Z,37.75
2019-05-18T09:29:01.518Z,37.15
2019-05-18T09:31:30.489Z,37.40
2019-05-18T09:33:59.008Z,36.25
2019-05-18T09:36:27.557Z,36.38
2019-05-18T09:38:56.209Z,35.68
2019-05-18T09:41:26.029Z,35.20
2019-05-18T09:43:54.502Z,36.10
2019-05-18T09:46:23.005Z,36.45
2019-05-18T09:48:51.481Z,35.92
2019-05-18T09:51:20.458Z,34.58
2019-05-18T09:53:51.529Z,35.45
2019-05-18T09:56:19.504Z,34.08
2019-05-18T09:58:47.982Z,35.00
2019-05-18T10:01:17.101Z,35.15
2019-05-18T10:03:45.590Z,33.50
2019-05-18T10:06:14.127Z,34.78
2019-05-18T10:08:43.943Z,29.35
2019-05-18T10:11:12.742Z,29.60
2019-05-18T10:13:41.297Z,29.05
2019-05-18T10:16:09.947Z,30.72
2019-05-18T10:18:38.495Z,29.25
2019-05-18T10:21:07.087Z,29.32
2019-05-18T10:23:35.706Z,29.95
2019-05-18T10:26:04.475Z,30.00
2019-05-18T10:28:33.013Z,28.05
2019-05-18T10:31:02.478Z,28.55
2019-05-18T10:33:31.020Z,28.35
2019-05-18T10:35:59.526Z,27.25
2019-05-18T10:38:28.031Z,27.62
2019-05-18T10:40:56.577Z,27.93
2019-05-18T10:43:25.157Z,27.45
2019-05-18T10:45:53.936Z,30.43
2019-05-18T10:48:22.525Z,30.75
2019-05-18T10:50:51.321Z,29.07
2019-05-18T10:53:28.276Z,29.57
2019-05-18T10:55:50.998Z,33.45
2019-05-18T10:58:19.515Z,33.25
2019-05-18T11:00:48.286Z,34.27
2019-05-18T11:03:17.046Z,32.17
2019-05-18T11:05:45.598Z,33.30
2019-05-18T11:08:14.112Z,33.55
2019-05-18T11:10:42.894Z,34.38
2019-05-18T11:13:11.358Z,34.25
2019-05-18T11:15:40.389Z,33.55
2019-05-18T11:18:08.929Z,33.65
2019-05-18T11:20:38.477Z,34.03
2019-05-18T11:23:07.381Z,31.97
2019-05-18T11:25:35.967Z,32.78
2019-05-18T11:28:04.537Z,32.60
2019-05-18T11:30:33.403Z,32.42
2019-05-18T11:33:03.437Z,32.08
2019-05-18T11:35:32.068Z,31.75
2019-05-18T11:38:00.629Z,31.37
2019-05-18T11:40:29.751Z,32.83
2019-05-18T11:42:58.241Z,32.00
2019-05-18T11:45:28.217Z,31.33
2019-05-18T11:47:56.807Z,31.73
2019-05-18T11:50:28.039Z,33.95
2019-05-18T11:52:56.886Z,33.60
2019-05-18T11:55:25.656Z,33.50
2019-05-18T11:57:54.266Z,33.20
2019-05-18T12:00:24.053Z,33.02
2019-05-18T12:02:52.675Z,34.90
2019-05-18T12:05:21.359Z,31.77
2019-05-18T12:07:50.016Z,32.88
2019-05-18T12:10:20.231Z,33.02
2019-05-18T12:12:48.864Z,33.05
2019-05-18T12:15:18.214Z,33.80
2019-05-18T12:17:46.777Z,34.08
2019-05-18T12:20:17.408Z,35.08
2019-05-18T12:22:46.121Z,36.47
2019-05-18T12:25:15.006Z,35.28
2019-05-18T12:27:43.741Z,38.10
2019-05-18T12:30:14.297Z,38.10
2019-05-18T12:32:42.912Z,36.87
2019-05-18T12:35:11.886Z,35.70
2019-05-18T12:37:40.446Z,36.73
2019-05-18T12:40:09.938Z,37.95
2019-05-18T12:42:40.075Z,39.45
2019-05-18T12:45:10.443Z,39.75
2019-05-18T12:47:39.229Z,38.50
2019-05-18T12:50:08.745Z,41.00
2019-05-18T12:52:37.566Z,41.18
2019-05-18T12:55:07.291Z,41.70
2019-05-18T12:57:36.728Z,41.20
2019-05-18T13:00:14.380Z,41.55
2019-05-18T13:02:43.060Z,40.78
2019-05-18T13:05:12.067Z,42.65
2019-05-18T13:07:40.733Z,43.35
2019-05-18T13:10:10.819Z,43.75
2019-05-18T13:12:39.617Z,44.93
2019-05-18T13:15:10.492Z,44.65
2019-05-18T13:17:39.129Z,45.15
2019-05-18T13:20:09.676Z,44.05
2019-05-18T13:22:38.498Z,46.25
2019-05-18T13:25:08.110Z,47.35
2019-05-18T13:27:39.870Z,46.75
2019-05-18T13:30:09.401Z,46.45
2019-05-18T13:32:38.024Z,48.40
2019-05-18T13:35:08.172Z,47.55
2019-05-18T13:37:36.982Z,47.00
2019-05-18T13:40:07.410Z,46.48
2019-05-18T13:42:35.962Z,49.03
2019-05-18T13:45:06.791Z,50.23
2019-05-18T13:47:35.308Z,48.28
2019-05-18T13:50:04.859Z,50.33
2019-05-18T13:52:33.525Z,48.65
2019-05-18T13:55:04.775Z,49.88
2019-05-18T13:57:32.474Z,47.60
2019-05-18T14:00:01.282Z,47.98
2019-05-18T14:02:30.238Z,47.03
2019-05-18T14:04:58.773Z,47.62
2019-05-18T14:07:27.445Z,47.62
2019-05-18T14:09:57.856Z,47.98
2019-05-18T14:12:27.808Z,46.55
2019-05-18T14:14:56.523Z,46.00
2019-05-18T14:17:25.188Z,43.95
2019-05-18T14:19:53.772Z,45.23
2019-05-18T14:22:22.676Z,45.98
2019-05-18T14:24:51.300Z,43.70
2019-05-18T14:27:21.385Z,43.95
2019-05-18T14:29:50.193Z,44.05
2019-05-18T14:32:19.225Z,43.52
2019-05-18T14:34:47.721Z,44.48
2019-05-18T14:37:16.447Z,42.58
2019-05-18T14:39:45.059Z,43.33
2019-05-18T14:42:13.673Z,44.35
2019-05-18T14:44:42.303Z,41.95
2019-05-18T14:47:10.841Z,42.85
2019-05-18T14:49:39.396Z,41.73
2019-05-18T14:52:11.803Z,41.42
2019-05-18T14:54:38.384Z,42.67
2019-05-18T14:57:06.916Z,43.23
2019-05-18T14:59:35.643Z,43.33
2019-05-18T15:02:04.602Z,44.55
2019-05-18T15:04:33.218Z,44.98
2019-05-18T15:07:01.821Z,44.73
2019-05-18T15:09:30.516Z,44.73
2019-05-18T15:11:59.185Z,44.50
2019-05-18T15:14:27.788Z,45.20
2019-05-18T15:16:59.332Z,43.80
2019-05-18T15:19:27.864Z,43.75
2019-05-18T15:21:57.048Z,46.53
2019-05-18T15:24:25.606Z,43.75
2019-05-18T15:26:54.212Z,45.10
2019-05-18T15:29:22.719Z,43.02
2019-05-18T15:31:51.538Z,46.08
2019-05-18T15:34:20.081Z,45.23
2019-05-18T15:36:49.135Z,43.17
2019-05-18T15:39:18.180Z,45.10
2019-05-18T15:41:47.142Z,44.80
2019-05-18T15:44:15.817Z,44.75
2019-05-18T15:46:44.327Z,46.60
2019-05-18T15:49:12.892Z,45.05
2019-05-18T15:51:41.944Z,47.20
2019-05-18T15:54:10.494Z,47.85
2019-05-18T15:56:39.048Z,44.93
2019-05-18T15:59:07.700Z,46.63
2019-05-18T16:01:36.566Z,46.10
2019-05-18T16:04:06.687Z,46.08
2019-05-18T16:06:38.346Z,45.55
2019-05-18T16:09:07.486Z,47.70
2019-05-18T16:11:36.237Z,48.33
2019-05-18T16:14:05.274Z,47.33
2019-05-18T16:16:33.767Z,49.77
2019-05-18T16:19:02.452Z,46.00
2019-05-18T16:21:31.623Z,45.12
2019-05-18T16:24:00.189Z,45.80
2019-05-18T16:26:28.760Z,46.50
2019-05-18T16:28:57.323Z,46.10
2019-05-18T16:31:26.162Z,44.80
2019-05-18T16:33:54.677Z,44.00
2019-05-18T16:36:23.470Z,43.70
2019-05-18T16:38:51.942Z,42.20
2019-05-18T16:41:20.491Z,44.38
2019-05-18T16:43:49.213Z,42.45
2019-05-18T16:46:17.890Z,40.55
2019-05-18T16:48:46.457Z,40.35
2019-05-18T16:51:15.381Z,43.42
2019-05-18T16:53:48.022Z,41.20
2019-05-18T16:56:14.190Z,39.83
2019-05-18T16:58:43.203Z,40.12
2019-05-18T17:01:12.045Z,39.08
2019-05-18T17:03:40.586Z,41.35
2019-05-18T17:06:09.387Z,39.65
2019-05-18T17:08:38.021Z,39.53
2019-05-18T17:11:06.857Z,40.52
2019-05-18T17:13:35.627Z,39.42
2019-05-18T17:16:04.175Z,40.78
2019-05-18T17:18:32.799Z,40.60
2019-05-18T17:21:01.701Z,38.48
2019-05-18T17:23:30.339Z,37.95
2019-05-18T17:25:58.918Z,38.70
2019-05-18T17:28:27.559Z,37.85
2019-05-18T17:30:56.347Z,40.78
2019-05-18T17:33:24.960Z,39.80
2019-05-18T17:36:00.459Z,40.52
2019-05-18T17:38:23.980Z,37.08
2019-05-18T17:40:52.719Z,39.08
2019-05-18T17:43:21.399Z,38.67
2019-05-18T17:45:49.937Z,39.18
2019-05-18T17:48:18.501Z,40.92
2019-05-18T17:50:47.428Z,39.08
2019-05-18T17:53:15.988Z,40.98
2019-05-18T17:55:44.595Z,38.95
2019-05-18T17:58:13.076Z,38.48
2019-05-18T18:00:41.676Z,38.73
2019-05-18T18:03:10.274Z,38.60
2019-05-18T18:05:38.965Z,39.70
2019-05-18T18:08:07.577Z,41.60
2019-05-18T18:10:36.464Z,41.05
2019-05-18T18:13:05.539Z,42.70
2019-05-18T18:15:34.109Z,43.35
2019-05-18T18:18:02.798Z,44.60
2019-05-18T18:20:31.918Z,45.00
2019-05-18T18:23:00.507Z,43.02
2019-05-18T18:25:29.079Z,45.00
2019-05-18T18:27:57.710Z,45.25
2019-05-18T18:30:26.442Z,45.35
2019-05-18T18:32:55.035Z,44.95
2019-05-18T18:35:23.851Z,43.60
2019-05-18T18:37:52.361Z,43.02
2019-05-18T18:40:21.251Z,43.90
2019-05-18T18:42:50.211Z,44.53
2019-05-18T18:45:20.520Z,45.70
2019-05-18T18:47:49.066Z,45.25
2019-05-18T18:50:18.814Z,45.70
2019-05-18T18:52:47.436Z,45.88
2019-05-18T18:55:16.639Z,44.48
2019-05-18T18:57:45.188Z,46.95
2019-05-18T19:00:15.909Z,46.10
2019-05-18T19:02:44.440Z,45.48
2019-05-18T19:05:13.953Z,47.20
2019-05-18T19:07:42.437Z,48.00
2019-05-18T19:10:12.856Z,48.40
2019-05-18T19:12:41.490Z,48.10
2019-05-18T19:15:10.760Z,49.03
2019-05-18T19:17:39.377Z,45.83
2019-05-18T19:20:08.845Z,46.20
2019-05-18T19:22:37.431Z,48.33
2019-05-18T19:25:06.573Z,46.20
2019-05-18T19:27:35.227Z,47.93
2019-05-18T19:30:10.047Z,48.63
2019-05-18T19:32:38.261Z,48.20
2019-05-18T19:35:08.384Z,48.70
2019-05-18T19:37:37.306Z,47.60
2019-05-18T19:40:07.685Z,49.88
2019-05-18T19:42:36.318Z,48.13
2019-05-18T19:45:06.851Z,48.87
2019-05-18T19:47:35.470Z,47.73
2019-05-18T19:50:06.426Z,48.00
2019-05-18T19:52:35.130Z,48.58
2019-05-18T19:55:04.926Z,47.53
2019-05-18T19:57:33.797Z,48.05
2019-05-18T20:00:03.402Z,46.70
2019-05-18T20:02:31.999Z,46.90
2019-05-18T20:05:07.409Z,49.15
2019-05-18T20:07:31.094Z,46.77
2019-05-18T20:09:59.643Z,47.95
2019-05-18T20:12:28.549Z,47.62
2019-05-18T20:14:57.143Z,51.60
2019-05-18T20:17:25.672Z,48.48
2019-05-18T20:19:54.390Z,49.67
2019-05-18T20:22:23.099Z,51.28
2019-05-18T20:24:51.611Z,48.55
2019-05-18T20:27:21.991Z,51.73
2019-05-18T20:29:50.592Z,51.10
2019-05-18T20:32:19.570Z,52.45
2019-05-18T20:34:48.111Z,51.20
2019-05-18T20:37:16.644Z,51.53
2019-05-18T20:39:45.594Z,51.42
2019-05-18T20:42:14.255Z,53.38
2019-05-18T20:44:42.791Z,54.93
2019-05-18T20:47:11.354Z,54.55
2019-05-18T20:49:40.149Z,55.40
2019-05-18T20:52:09.028Z,54.25
2019-05-18T20:54:37.623Z,55.08
2019-05-18T20:57:06.529Z,55.83
2019-05-18T20:59:35.140Z,58.55
2019-05-18T21:02:03.739Z,59.93
2019-05-18T21:04:32.328Z,58.87
2019-05-18T21:07:00.774Z,55.90
2019-05-18T21:09:29.443Z,57.38
2019-05-18T21:11:58.225Z,56.35
2019-05-18T21:14:26.790Z,57.08
2019-05-18T21:16:55.248Z,59.05
2019-05-18T21:19:26.726Z,59.35
2019-05-18T21:21:55.642Z,58.20
2019-05-18T21:24:24.169Z,56.30
2019-05-18T21:26:52.801Z,58.02
2019-05-18T21:29:21.384Z,60.03
2019-05-18T21:31:51.195Z,58.08
2019-05-18T21:34:19.764Z,58.20
2019-05-18T21:36:48.380Z,57.80
2019-05-18T21:39:17.391Z,56.98
2019-05-18T21:41:47.269Z,55.95
2019-05-18T21:44:15.828Z,58.87
2019-05-18T21:46:44.394Z,59.70
2019-05-18T21:49:13.214Z,57.67
2019-05-18T21:51:42.097Z,60.28
2019-05-18T21:54:10.719Z,59.98
2019-05-18T21:56:39.435Z,58.25
2019-05-18T21:59:11.706Z,58.13
2019-05-18T22:01:39.076Z,59.15
2019-05-18T22:04:07.825Z,57.88
2019-05-18T22:06:36.454Z,58.75
2019-05-18T22:09:06.781Z,58.38
2019-05-18T22:11:36.137Z,57.98
2019-05-18T22:14:05.346Z,55.98
2019-05-18T22:16:33.878Z,58.10
2019-05-18T22:19:02.709Z,58.63
2019-05-18T22:21:31.305Z,59.15
2019-05-18T22:23:59.896Z,59.45
2019-05-18T22:26:28.409Z,59.77
2019-05-18T22:28:56.892Z,60.30
2019-05-18T22:31:25.525Z,61.98
2019-05-18T22:33:54.082Z,60.43
2019-05-18T22:36:22.631Z,63.38
2019-05-18T22:38:51.195Z,61.08
2019-05-18T22:41:19.922Z,62.62
2019-05-18T22:43:48.405Z,60.67
2019-05-18T22:46:16.951Z,63.83
2019-05-18T22:48:45.516Z,62.85
2019-05-18T22:51:16.269Z,61.77
2019-05-18T22:53:46.599Z,62.05
2019-05-18T22:56:15.385Z,63.13
2019-05-18T22:58:43.954Z,62.25
2019-05-18T23:01:12.649Z,64.85
2019-05-18T23:03:41.226Z,66.92
2019-05-18T23:06:09.698Z,62.33
2019-05-18T23:08:38.177Z,64.00
2019-05-18T23:11:06.977Z,63.05
2019-05-18T23:13:35.470Z,65.70
2019-05-18T23:16:04.083Z,65.78
2019-05-18T23:18:32.925Z,65.70
2019-05-18T23:21:01.642Z,64.75
2019-05-18T23:23:30.178Z,66.70
2019-05-18T23:25:58.759Z,64.47
2019-05-18T23:28:27.339Z,66.50
2019-05-18T23:30:56.012Z,65.32
2019-05-18T23:33:24.650Z,63.52
2019-05-18T23:35:53.234Z,62.30
2019-05-18T23:38:21.793Z,64.30
2019-05-18T23:40:50.459Z,64.95
2019-05-18T23:43:18.943Z,64.92
2019-05-18T23:45:47.493Z,64.90
2019-05-18T23:48:16.284Z,66.45
2019-05-18T23:50:45.003Z,62.80
2019-05-18T23:53:13.500Z,67.17
2019-05-18T23:55:41.999Z,67.75
2019-05-18T23:58:10.476Z,66.92
